createdAt,value
2022-12-25T00:00:20.930Z,100480.48
2022-12-25T00:05:45.107Z,100478.37
2022-12-25T00:10:57.819Z,100485.74
2022-12-25T00:16:06.993Z,100490.23
2022-12-25T00:21:11.501Z,100497.50
2022-12-25T00:26:16.977Z,100501.31
2022-12-25T00:31:21.690Z,100505.58
2022-12-25T00:36:25.650Z,100505.86
2022-12-25T00:41:47.801Z,100506.48
2022-12-25T00:46:51.653Z,100517.92
2022-12-25T00:51:55.647Z,100520.45
2022-12-25T00:56:59.360Z,100520.91
2022-12-25T01:02:21.662Z,100523.31
2022-12-25T01:07:27.003Z,100523.11
2022-12-25T01:12:34.001Z,100531.47
2022-12-25T01:17:37.753Z,100546.11
2022-12-25T01:22:41.666Z,100544.37
2022-12-25T01:27:45.317Z,100547.00
2022-12-25T01:32:49.127Z,100558.51
2022-12-25T01:37:53.275Z,100568.32
2022-12-25T01:42:57.052Z,100572.69
2022-12-25T01:48:07.475Z,100577.14
2022-12-25T01:53:11.920Z,100571.92
2022-12-25T01:58:16.802Z,100567.45
2022-12-25T02:03:21.952Z,100568.52
2022-12-25T02:08:25.931Z,100575.75
2022-12-25T02:13:29.777Z,100573.07
2022-12-25T02:18:59.406Z,100582.14
2022-12-25T02:24:19.027Z,100580.41
2022-12-25T02:29:54.735Z,100585.31
2022-12-25T02:35:18.637Z,100583.77
2022-12-25T02:40:26.915Z,100592.13
2022-12-25T02:45:49.180Z,100593.95
2022-12-25T02:51:12.653Z,100596.77
2022-12-25T02:56:37.863Z,100602.58
2022-12-25T03:02:02.023Z,100606.86
2022-12-25T03:07:13.002Z,100614.27
2022-12-25T03:12:18.818Z,100606.77
2022-12-25T03:17:22.583Z,100606.77
2022-12-25T03:22:50.494Z,100611.42
2022-12-25T03:27:56.356Z,100622.66
2022-12-25T03:33:23.577Z,100633.02
2022-12-25T03:38:50.814Z,100638.14
2022-12-25T03:44:24.806Z,100643.94
2022-12-25T03:49:58.663Z,100650.02
2022-12-25T03:55:25.610Z,100656.65
2022-12-25T04:00:47.787Z,100661.32
2022-12-25T04:06:10.120Z,100666.55
2022-12-25T04:11:32.401Z,100662.30
2022-12-25T04:16:56.424Z,100656.82
2022-12-25T04:22:18.933Z,100648.84
2022-12-25T04:27:41.634Z,100650.00
2022-12-25T04:33:11.394Z,100654.17
2022-12-25T04:38:15.185Z,100653.71
2022-12-25T04:43:19.443Z,100655.33
2022-12-25T04:48:23.381Z,100655.01
2022-12-25T04:53:27.048Z,100663.98
2022-12-25T04:58:32.424Z,100671.13
2022-12-25T05:03:36.784Z,100673.71
2022-12-25T05:08:40.628Z,100673.08
2022-12-25T05:13:44.873Z,100678.34
2022-12-25T05:18:52.252Z,100688.96
2022-12-25T05:23:55.913Z,100687.21
2022-12-25T05:28:59.718Z,100701.00
2022-12-25T05:34:03.837Z,100705.77
2022-12-25T05:39:07.555Z,100704.62
2022-12-25T05:44:12.643Z,100707.98
2022-12-25T05:49:16.516Z,100710.96
2022-12-25T05:54:20.266Z,100713.09
2022-12-25T05:59:24.041Z,100719.31
2022-12-25T06:04:27.800Z,100718.59
2022-12-25T06:09:31.524Z,100724.09
2022-12-25T06:14:35.833Z,100730.08
2022-12-25T06:19:39.621Z,100736.09
2022-12-25T06:24:43.444Z,100752.29
2022-12-25T06:29:47.233Z,100752.61
2022-12-25T06:34:51.362Z,100767.80
2022-12-25T06:39:55.003Z,100779.79
2022-12-25T06:44:58.822Z,100790.66
2022-12-25T06:50:06.223Z,100787.76
2022-12-25T06:55:10.305Z,100794.14
2022-12-25T07:00:14.645Z,100788.80
2022-12-25T07:05:18.639Z,100788.51
2022-12-25T07:10:22.367Z,100787.02
2022-12-25T07:15:26.119Z,100786.80
2022-12-25T07:20:30.475Z,100795.50
2022-12-25T07:25:37.411Z,100797.73
2022-12-25T07:30:41.431Z,100797.63
2022-12-25T07:35:45.127Z,100804.63
2022-12-25T07:40:48.990Z,100808.09
2022-12-25T07:46:00.861Z,100808.48
2022-12-25T07:51:07.347Z,100805.63
2022-12-25T07:56:14.090Z,100802.49
2022-12-25T08:01:21.660Z,100808.63
2022-12-25T08:06:30.122Z,100815.61
2022-12-25T08:11:34.097Z,100810.14
2022-12-25T08:16:42.017Z,100811.95
2022-12-25T08:21:45.948Z,100816.65
2022-12-25T08:26:49.614Z,100808.00
2022-12-25T08:31:53.783Z,100814.19
2022-12-25T08:36:57.528Z,100828.54
2022-12-25T08:42:01.207Z,100836.62
2022-12-25T08:47:05.216Z,100843.10
2022-12-25T08:52:09.060Z,100845.92
2022-12-25T08:57:12.789Z,100843.86
2022-12-25T09:02:17.562Z,100845.42
2022-12-25T09:07:21.591Z,100852.81
2022-12-25T09:12:25.367Z,100853.37
2022-12-25T09:17:29.233Z,100846.65
2022-12-25T09:22:34.688Z,100851.91
2022-12-25T09:27:39.735Z,100851.45
2022-12-25T09:32:43.610Z,100856.11
2022-12-25T09:37:47.328Z,100852.49
2022-12-25T09:42:53.970Z,100845.67
2022-12-25T09:47:57.740Z,100839.14
2022-12-25T09:53:08.007Z,100843.42
2022-12-25T09:58:13.641Z,100849.13
2022-12-25T10:03:40.298Z,100857.30
2022-12-25T10:09:17.031Z,100836.52
2022-12-25T10:14:31.489Z,100820.77
2022-12-25T10:19:41.004Z,100820.09
2022-12-25T10:24:52.627Z,100814.89
2022-12-25T10:29:56.436Z,100811.27
2022-12-25T10:35:00.274Z,100806.85
2022-12-25T10:40:04.848Z,100798.27
2022-12-25T10:45:10.230Z,100795.40
2022-12-25T10:50:24.829Z,100794.70
2022-12-25T10:55:29.707Z,100784.92
2022-12-25T11:00:34.299Z,100785.80
2022-12-25T11:05:38.151Z,100781.22
2022-12-25T11:10:44.845Z,100778.61
2022-12-25T11:15:49.726Z,100765.74
2022-12-25T11:20:58.511Z,100754.39
2022-12-25T11:26:05.375Z,100746.25
2022-12-25T11:31:20.230Z,100736.05
2022-12-25T11:36:46.384Z,100739.74
2022-12-25T11:42:16.074Z,100746.41
2022-12-25T11:47:29.803Z,100739.03
2022-12-25T11:52:37.401Z,100737.80
2022-12-25T11:57:41.994Z,100734.92
2022-12-25T12:03:10.176Z,100732.38
2022-12-25T12:08:14.796Z,100742.59
2022-12-25T12:13:31.002Z,100736.09
2022-12-25T12:18:35.084Z,100733.49
2022-12-25T12:24:10.065Z,100729.86
2022-12-25T12:29:44.039Z,100725.78
2022-12-25T12:34:51.677Z,100720.60
2022-12-25T12:39:55.903Z,100707.75
2022-12-25T12:45:09.569Z,100699.70
2022-12-25T12:50:42.970Z,100708.04
2022-12-25T12:55:46.802Z,100714.62
2022-12-25T13:01:01.222Z,100718.88
2022-12-25T13:06:14.242Z,100711.66
2022-12-25T13:11:18.050Z,100707.64
2022-12-25T13:16:26.025Z,100692.11
2022-12-25T13:21:30.330Z,100693.36
2022-12-25T13:26:34.244Z,100701.98
2022-12-25T13:31:38.082Z,100698.83
2022-12-25T13:36:41.900Z,100695.81
2022-12-25T13:42:05.900Z,100694.79
2022-12-25T13:47:25.038Z,100687.73
2022-12-25T13:52:35.030Z,100671.84
2022-12-25T13:57:41.805Z,100664.63
2022-12-25T14:02:45.974Z,100661.60
2022-12-25T14:07:58.697Z,100651.50
2022-12-25T14:13:06.429Z,100672.11
2022-12-25T14:18:18.028Z,100669.66
2022-12-25T14:23:22.000Z,100668.84
2022-12-25T14:28:32.855Z,100677.16
2022-12-25T14:33:39.257Z,100673.71
2022-12-25T14:38:44.363Z,100674.98
2022-12-25T14:43:55.556Z,100674.17
2022-12-25T14:49:07.798Z,100673.75
2022-12-25T14:54:17.523Z,100673.17
2022-12-25T14:59:24.677Z,100672.17
2022-12-25T15:04:29.125Z,100661.54
2022-12-25T15:09:33.499Z,100647.26
2022-12-25T15:14:40.495Z,100663.73
2022-12-25T15:19:44.311Z,100669.61
2022-12-25T15:24:48.194Z,100637.66
2022-12-25T15:35:19.258Z,100660.90
2022-12-25T15:40:23.203Z,100648.02
2022-12-25T15:45:29.533Z,100633.63
2022-12-25T15:50:35.513Z,100628.43
2022-12-25T15:55:40.127Z,100630.58
2022-12-25T16:00:43.986Z,100641.16
2022-12-25T16:05:47.805Z,100642.27
2022-12-25T16:10:51.607Z,100625.79
2022-12-25T16:15:55.411Z,100605.52
2022-12-25T16:20:59.577Z,100595.33
2022-12-25T16:26:03.442Z,100590.45
2022-12-25T16:31:07.828Z,100578.96
2022-12-25T16:36:11.687Z,100578.29
2022-12-25T16:41:16.552Z,100570.20
2022-12-25T16:46:22.813Z,100579.03
2022-12-25T16:51:27.699Z,100574.13
2022-12-25T16:56:32.790Z,100557.91
2022-12-25T17:01:38.541Z,100567.24
2022-12-25T17:06:42.550Z,100572.05
2022-12-25T17:11:46.518Z,100580.44
2022-12-25T17:16:50.402Z,100581.41
2022-12-25T17:21:57.653Z,100557.65
2022-12-25T17:27:01.443Z,100539.27
2022-12-25T17:32:05.343Z,100526.96
2022-12-25T17:37:09.172Z,100537.06
2022-12-25T17:42:12.966Z,100547.27
2022-12-25T17:47:16.840Z,100548.46
2022-12-25T17:52:20.865Z,100542.70
2022-12-25T17:57:24.687Z,100541.38
2022-12-25T18:02:30.478Z,100532.43
2022-12-25T18:07:34.549Z,100522.71
2022-12-25T18:12:38.320Z,100517.81
2022-12-25T18:17:42.078Z,100510.67
2022-12-25T18:22:45.869Z,100485.33
2022-12-25T18:27:49.664Z,100478.77
2022-12-25T18:32:53.481Z,100474.22
2022-12-25T18:37:59.507Z,100475.49
2022-12-25T18:43:03.768Z,100458.79
2022-12-25T18:48:08.387Z,100469.33
2022-12-25T18:53:12.382Z,100462.92
2022-12-25T18:58:16.217Z,100448.20
2022-12-25T19:03:20.258Z,100454.58
2022-12-25T19:08:24.746Z,100446.16
2022-12-25T19:13:28.844Z,100432.55
2022-12-25T19:18:33.114Z,100428.97
2022-12-25T19:23:41.180Z,100419.67
2022-12-25T19:28:44.942Z,100422.61
2022-12-25T19:33:49.033Z,100410.55
2022-12-25T19:38:52.785Z,100400.38
2022-12-25T19:43:56.827Z,100397.15
2022-12-25T19:49:04.624Z,100392.85
2022-12-25T19:54:14.752Z,100391.28
2022-12-25T19:59:18.951Z,100381.59
2022-12-25T20:04:23.167Z,100376.52
2022-12-25T20:09:27.053Z,100362.27
2022-12-25T20:14:30.778Z,100351.91
2022-12-25T20:19:42.684Z,100337.41
2022-12-25T20:24:48.187Z,100329.40
2022-12-25T20:29:52.456Z,100334.83
2022-12-25T20:34:56.654Z,100341.09
2022-12-25T20:40:00.526Z,100347.77
2022-12-25T20:45:07.080Z,100331.23
2022-12-25T20:50:11.211Z,100326.54
2022-12-25T20:55:15.022Z,100310.44
2022-12-25T21:00:18.720Z,100300.10
2022-12-25T21:05:22.456Z,100313.27
2022-12-25T21:10:26.321Z,100316.41
2022-12-25T21:15:30.050Z,100295.66
2022-12-25T21:20:33.736Z,100289.78
2022-12-25T21:25:37.478Z,100270.16
2022-12-25T21:30:41.437Z,100254.62
2022-12-25T21:35:45.194Z,100242.85
2022-12-25T21:40:48.977Z,100241.89
2022-12-25T21:45:52.876Z,100246.59
2022-12-25T21:51:27.666Z,100247.14
2022-12-25T21:56:35.227Z,100261.18
2022-12-25T22:01:42.913Z,100276.57
2022-12-25T22:07:06.075Z,100281.52
2022-12-25T22:12:33.842Z,100270.96
2022-12-25T22:17:58.986Z,100263.66
2022-12-25T22:23:03.659Z,100256.27
2022-12-25T22:28:08.934Z,100249.20
2022-12-25T22:33:13.290Z,100249.50
2022-12-25T22:38:17.146Z,100241.47
2022-12-25T22:43:20.866Z,100224.64
2022-12-25T22:48:24.616Z,100217.35
2022-12-25T22:53:28.313Z,100201.88
2022-12-25T22:58:32.063Z,100197.73
2022-12-25T23:03:35.845Z,100187.13
2022-12-25T23:08:39.716Z,100168.52
2022-12-25T23:14:02.030Z,100173.45
2022-12-25T23:19:25.399Z,100179.14
2022-12-25T23:24:48.579Z,100190.73
2022-12-25T23:29:54.811Z,100190.48
2022-12-25T23:34:58.456Z,100176.41
2022-12-25T23:40:02.141Z,100167.09
2022-12-25T23:45:06.562Z,100163.46
2022-12-25T23:50:10.837Z,100174.85
2022-12-25T23:55:14.553Z,100181.54
